Terminal Aerodrome Forecast
Issued by NWS North Platte, NE

Home | Current Version | Previous Version | Graphics & Text | Print | Product List | Glossary On
Versions: 1 2 3 4 5 6 7 8 9 10 11 12
000
FTUS43 KLBF 132324
TAFVTN
TAF
KVTN 132324Z 1400/1424 20006KT P6SM BKN200
     FM140700 VRB06KT P6SM BKN200
     FM141700 00000KT P6SM SCT150=

USA.gov is the U.S. government's official web portal to all federal, state and local government web resources and services.